Platzwetter Flugplatz Wels

Flugwetter Linz LOWL

[Quelle: ADDS]
METAR
LOWL 271820Z 13004KT 9999 FEW015 06/05 Q1016 BECMG FM1930 4000 MIFG =
LOWL 271715Z 2718/2818 VRB02KT 9999 SCT030 TX10/2815Z TN02/2804Z BECMG 2719/2722 0600 BCFG NSC BECMG 2800/2802 0400 FG OVC002 TEMPO 2803/2809 0300 FG VV001 BECMG 2810/2812 9999 FEW010 BKN050
TAF
LOWL 271715Z 2718/2818 VRB02KT 9999 SCT030 TX10/2815Z TN02/2804Z BECMG 2719/2722 0600 BCFG NSC BECMG 2800/2802 0400 FG OVC002 TEMPO 2803/2809 0300 FG VV001 BECMG 2810/2812 9999 FEW010 BKN050 =

Flugwetter Salzburg LOWS

[Quelle: ADDS]
METAR
LOWS 271820Z 15009KT 9999 FEW048 05/04 Q1015 NOSIG =
LOWS 271715Z 2718/2818 15006KT 9999 FEW050 TX12/2814Z TN02/2801Z FM280900 VRB03KT 9999 FEW040 BKN090 BECMG 2816/2818 15007KT
TAF
LOWS 271715Z 2718/2818 15006KT 9999 FEW050 TX12/2814Z TN02/2801Z FM280900 VRB03KT 9999 FEW040 BKN090 BECMG 2816/2818 15007KT =

Wind - Verlauf

Windrichtung - Verlauf

Temperatur - Verlauf

Relative Luftfeuchtigkeit - Verlauf

Luftdruck - Verlauf

Cookies erleichtern die Bereitstellung unserer Dienste. Mit der Nutzung unserer Dienste erklären Sie sich damit einverstanden, dass wir Cookies verwenden.
Weitere Informationen Ok